BAW2232 TXKF-EGKK
Flight info
| Callsign | BAW2232 |
|---|---|
| Flight time | 6h 14m |
| Altitude | FL330 |
| Route | BALOO 40N060W JAROM SUPRY 46N050W 48N040W 50N030W 51N020W DINIM ELSOX LESLU FONZU ELRIP OTMET OTME1G |
| Aircraft | DC10/H-SDE1E2E3FGHIJ2J3J4J5M1RWXY/LB1D1 |
Departure
| Time | 2026-05-04 10:33 |
|---|---|
| Airport | L.F. Wade International Airport (TXKF) |
Arrival
| Time | 2026-05-04 16:48 |
|---|---|
| Airport | London Gatwick Airport (EGKK) |
| Time | Latitude | Longitude | Altitude | Speed | Heading |
|---|---|---|---|---|---|
| 2026-05-04 10:13 | 32.36029 | -64.70246 | 23 ft | 0 kts | 150° |
| 2026-05-04 10:25 | 32.36030 | -64.70247 | 23 ft | 1 kts | 150° |
| 2026-05-04 10:26 | 32.36041 | -64.70255 | 23 ft | 3 kts | 150° |
| 2026-05-04 10:26 | 32.36058 | -64.70266 | 23 ft | 3 kts | 150° |
| 2026-05-04 10:26 | 32.36075 | -64.70279 | 23 ft | 3 kts | 123° |
| 2026-05-04 10:26 | 32.36078 | -64.70300 | 23 ft | 2 kts | 59° |
| 2026-05-04 10:27 | 32.36077 | -64.70301 | 23 ft | 0 kts | 59° |
| 2026-05-04 10:29 | 32.36077 | -64.70300 | 23 ft | 0 kts | 59° |
| 2026-05-04 10:30 | 32.36091 | -64.70272 | 23 ft | 9 kts | 59° |
| 2026-05-04 10:30 | 32.36139 | -64.70171 | 23 ft | 17 kts | 61° |
| 2026-05-04 10:30 | 32.36223 | -64.70065 | 23 ft | 20 kts | 31° |
| 2026-05-04 10:30 | 32.36336 | -64.69949 | 23 ft | 24 kts | 64° |
| 2026-05-04 10:31 | 32.36406 | -64.69755 | 23 ft | 27 kts | 68° |
| 2026-05-04 10:31 | 32.36490 | -64.69529 | 23 ft | 26 kts | 68° |
| 2026-05-04 10:32 | 32.36494 | -64.68389 | 23 ft | 114 kts | 100° |
| 2026-05-04 10:33 | 32.36295 | -64.67240 | 24 ft | 169 kts | 100° |
| 2026-05-04 10:33 | 32.36031 | -64.65744 | 293 ft | 197 kts | 99° |
| 2026-05-04 10:33 | 32.35741 | -64.64122 | 1007 ft | 205 kts | 99° |
| 2026-05-04 10:33 | 32.35442 | -64.62472 | 1882 ft | 203 kts | 99° |
| 2026-05-04 10:34 | 32.35231 | -64.60827 | 2551 ft | 205 kts | 90° |
| 2026-05-04 10:34 | 32.35488 | -64.59138 | 2965 ft | 215 kts | 71° |
| 2026-05-04 10:34 | 32.36141 | -64.57513 | 3414 ft | 224 kts | 57° |
| 2026-05-04 10:34 | 32.37158 | -64.56074 | 3904 ft | 236 kts | 43° |
| 2026-05-04 10:35 | 32.38364 | -64.54641 | 4587 ft | 255 kts | 41° |
| 2026-05-04 10:35 | 32.39827 | -64.53487 | 5606 ft | 255 kts | 26° |
| 2026-05-04 10:35 | 32.41376 | -64.52398 | 6555 ft | 265 kts | 29° |
| 2026-05-04 10:35 | 32.42849 | -64.50968 | 7280 ft | 282 kts | 41° |
| 2026-05-04 10:36 | 32.44206 | -64.49257 | 8142 ft | 291 kts | 46° |
| 2026-05-04 10:36 | 32.45610 | -64.47504 | 9048 ft | 295 kts | 44° |
| 2026-05-04 10:36 | 32.47051 | -64.45751 | 9897 ft | 303 kts | 43° |
| 2026-05-04 10:36 | 32.48551 | -64.43963 | 10683 ft | 312 kts | 41° |
| 2026-05-04 10:37 | 32.50164 | -64.42133 | 11356 ft | 327 kts | 41° |
| 2026-05-04 10:37 | 32.51819 | -64.40184 | 11997 ft | 344 kts | 42° |
| 2026-05-04 10:37 | 32.53552 | -64.38157 | 12635 ft | 359 kts | 41° |
| 2026-05-04 10:37 | 32.55387 | -64.36040 | 13277 ft | 376 kts | 41° |
| 2026-05-04 10:39 | 32.67293 | -64.22028 | 18280 ft | 424 kts | 41° |
| 2026-05-04 10:39 | 32.69375 | -64.19512 | 19004 ft | 432 kts | 41° |
| 2026-05-04 10:39 | 32.71500 | -64.16946 | 19747 ft | 439 kts | 41° |
| 2026-05-04 10:40 | 32.73658 | -64.14347 | 20484 ft | 446 kts | 41° |
| 2026-05-04 10:40 | 32.75851 | -64.11708 | 21195 ft | 452 kts | 40° |
| 2026-05-04 10:40 | 32.78071 | -64.09037 | 21851 ft | 460 kts | 41° |
| 2026-05-04 10:40 | 32.80338 | -64.06324 | 22518 ft | 466 kts | 41° |
| 2026-05-04 10:41 | 32.82665 | -64.03586 | 23124 ft | 474 kts | 41° |
| 2026-05-04 10:41 | 32.85031 | -64.00829 | 23727 ft | 481 kts | 41° |
| 2026-05-04 10:41 | 32.87449 | -63.98041 | 24325 ft | 488 kts | 41° |
| 2026-05-04 10:41 | 32.89901 | -63.95218 | 24915 ft | 494 kts | 42° |
| 2026-05-04 10:42 | 32.92372 | -63.92352 | 25591 ft | 498 kts | 42° |
| 2026-05-04 10:42 | 32.94838 | -63.89473 | 26332 ft | 499 kts | 43° |
| 2026-05-04 10:42 | 32.97310 | -63.86559 | 26984 ft | 503 kts | 43° |
| 2026-05-04 10:42 | 32.99799 | -63.83596 | 27492 ft | 509 kts | 43° |
| 2026-05-04 10:43 | 33.02313 | -63.80617 | 28015 ft | 515 kts | 43° |
| 2026-05-04 10:44 | 33.20234 | -63.58842 | 31727 ft | 540 kts | 41° |
| 2026-05-04 10:45 | 33.22866 | -63.55637 | 32102 ft | 546 kts | 41° |
| 2026-05-04 10:45 | 33.25543 | -63.52388 | 32432 ft | 552 kts | 41° |
| 2026-05-04 10:45 | 33.28259 | -63.49101 | 32815 ft | 557 kts | 41° |
| 2026-05-04 10:45 | 33.30995 | -63.45799 | 33023 ft | 565 kts | 41° |
| 2026-05-04 10:46 | 33.33785 | -63.42440 | 33140 ft | 571 kts | 41° |
| 2026-05-04 10:46 | 33.39353 | -63.35746 | 33133 ft | 568 kts | 41° |
| 2026-05-04 10:47 | 33.43989 | -63.30168 | 33125 ft | 566 kts | 41° |
| 2026-05-04 10:47 | 33.49534 | -63.23491 | 33124 ft | 566 kts | 41° |
| 2026-05-04 10:49 | 33.71660 | -62.96551 | 33108 ft | 578 kts | 43° |
| 2026-05-04 10:50 | 33.77173 | -62.89463 | 33096 ft | 584 kts | 43° |
| 2026-05-04 10:52 | 34.00051 | -62.61382 | 33084 ft | 589 kts | 41° |
| 2026-05-04 10:52 | 34.05801 | -62.54338 | 33084 ft | 590 kts | 41° |
| 2026-05-04 10:54 | 34.28796 | -62.26120 | 33083 ft | 590 kts | 41° |
| 2026-05-04 10:56 | 34.51376 | -62.06221 | 33085 ft | 573 kts | 8° |
| 2026-05-04 10:56 | 34.55198 | -62.05003 | 33082 ft | 568 kts | 5° |
| 2026-05-04 10:57 | 34.62845 | -62.02885 | 33078 ft | 560 kts | 4° |
| 2026-05-04 10:57 | 34.70369 | -62.00721 | 33078 ft | 555 kts | 6° |
| 2026-05-04 10:58 | 34.77815 | -61.98307 | 33078 ft | 553 kts | 7° |
| 2026-05-04 10:58 | 34.85206 | -61.95689 | 33078 ft | 553 kts | 8° |
| 2026-05-04 10:59 | 34.92573 | -61.92993 | 33078 ft | 554 kts | 8° |
| 2026-05-04 10:59 | 34.99966 | -61.90339 | 33077 ft | 554 kts | 8° |
| 2026-05-04 11:00 | 35.07348 | -61.87686 | 33077 ft | 554 kts | 8° |
| 2026-05-04 11:02 | 35.36893 | -61.76977 | 33075 ft | 554 kts | 8° |
| 2026-05-04 11:05 | 35.92279 | -61.56691 | 33064 ft | 554 kts | 8° |
| 2026-05-04 11:06 | 35.99649 | -61.53968 | 33063 ft | 554 kts | 8° |
| 2026-05-04 11:06 | 36.07040 | -61.51214 | 33058 ft | 557 kts | 6° |
| 2026-05-04 11:10 | 36.59296 | -61.31275 | 33038 ft | 561 kts | 5° |
| 2026-05-04 11:12 | 36.89172 | -61.20019 | 33023 ft | 561 kts | 5° |
| 2026-05-04 11:12 | 36.96646 | -61.17185 | 33022 ft | 561 kts | 5° |
| 2026-05-04 11:13 | 37.04104 | -61.14352 | 33022 ft | 562 kts | 5° |
| 2026-05-04 11:13 | 37.11578 | -61.11504 | 33022 ft | 562 kts | 5° |
| 2026-05-04 11:14 | 37.19030 | -61.08661 | 33022 ft | 562 kts | 5° |
| 2026-05-04 11:16 | 37.48880 | -60.97206 | 33019 ft | 561 kts | 5° |
| 2026-05-04 11:16 | 37.56343 | -60.94327 | 33017 ft | 561 kts | 5° |
| 2026-05-04 11:17 | 37.63815 | -60.91441 | 33014 ft | 561 kts | 5° |
| 2026-05-04 11:19 | 37.93662 | -60.79847 | 33006 ft | 562 kts | 5° |
| 2026-05-04 11:19 | 38.01132 | -60.76927 | 33002 ft | 562 kts | 5° |
| 2026-05-04 11:20 | 38.08593 | -60.74006 | 32999 ft | 562 kts | 5° |
| 2026-05-04 11:20 | 38.16048 | -60.71085 | 32996 ft | 562 kts | 5° |
| 2026-05-04 11:22 | 38.45920 | -60.59381 | 32983 ft | 562 kts | 5° |
| 2026-05-04 11:23 | 38.53397 | -60.56451 | 32974 ft | 562 kts | 5° |
| 2026-05-04 11:25 | 38.79513 | -60.46088 | 32957 ft | 562 kts | 6° |
| 2026-05-04 11:25 | 38.86913 | -60.42988 | 32955 ft | 555 kts | 6° |
| 2026-05-04 11:27 | 39.19505 | -60.29663 | 32899 ft | 543 kts | 5° |
| 2026-05-04 11:28 | 39.26712 | -60.26747 | 32894 ft | 543 kts | 4° |
| 2026-05-04 11:28 | 39.33899 | -60.23830 | 32885 ft | 543 kts | 4° |
| 2026-05-04 11:29 | 39.41100 | -60.20897 | 32872 ft | 543 kts | 5° |
| 2026-05-04 11:29 | 39.48286 | -60.17963 | 32855 ft | 543 kts | 5° |
| 2026-05-04 11:33 | 39.99465 | -59.97025 | 32836 ft | 561 kts | 8° |
| 2026-05-04 11:33 | 40.06688 | -59.93111 | 32834 ft | 565 kts | 12° |
| 2026-05-04 11:34 | 40.13782 | -59.88576 | 32832 ft | 571 kts | 17° |
| 2026-05-04 11:34 | 40.20718 | -59.83434 | 32830 ft | 577 kts | 21° |
| 2026-05-04 11:35 | 40.27183 | -59.77107 | 32824 ft | 584 kts | 38° |
| 2026-05-04 11:35 | 40.29737 | -59.73024 | 32825 ft | 590 kts | 51° |
| 2026-05-04 11:35 | 40.31793 | -59.68301 | 32829 ft | 598 kts | 63° |
| 2026-05-04 11:36 | 40.35214 | -59.58244 | 32827 ft | 610 kts | 59° |
| 2026-05-04 11:36 | 40.37568 | -59.53601 | 32829 ft | 612 kts | 47° |
| 2026-05-04 11:36 | 40.40392 | -59.49458 | 32836 ft | 612 kts | 39° |
| 2026-05-04 11:37 | 40.46802 | -59.42139 | 32830 ft | 609 kts | 30° |
| 2026-05-04 11:37 | 40.53460 | -59.35354 | 32819 ft | 604 kts | 29° |
| 2026-05-04 11:38 | 40.60024 | -59.28497 | 32819 ft | 601 kts | 31° |
| 2026-05-04 11:38 | 40.66403 | -59.21443 | 32814 ft | 600 kts | 33° |
| 2026-05-04 11:39 | 40.72684 | -59.14204 | 32809 ft | 601 kts | 34° |
| 2026-05-04 11:41 | 40.94638 | -58.88633 | 32789 ft | 603 kts | 34° |
| 2026-05-04 11:41 | 40.99868 | -58.82512 | 32770 ft | 604 kts | 34° |
| 2026-05-04 11:42 | 41.06156 | -58.75138 | 32776 ft | 604 kts | 34° |
| 2026-05-04 11:42 | 41.12434 | -58.67780 | 32770 ft | 600 kts | 36° |
| 2026-05-04 11:43 | 41.18764 | -58.60763 | 32735 ft | 584 kts | 34° |
| 2026-05-04 11:43 | 41.25102 | -58.54229 | 32735 ft | 573 kts | 34° |
| 2026-05-04 11:44 | 41.31260 | -58.47614 | 32736 ft | 566 kts | 36° |
| 2026-05-04 11:44 | 41.37184 | -58.40769 | 32711 ft | 565 kts | 38° |
| 2026-05-04 11:45 | 41.43005 | -58.33745 | 32710 ft | 564 kts | 38° |
| 2026-05-04 11:45 | 41.48809 | -58.26747 | 32714 ft | 564 kts | 38° |
| 2026-05-04 11:46 | 41.54626 | -58.19746 | 32697 ft | 564 kts | 38° |
| 2026-05-04 11:46 | 41.60442 | -58.12748 | 32695 ft | 564 kts | 38° |
| 2026-05-04 11:47 | 41.66279 | -58.05739 | 32701 ft | 564 kts | 38° |
| 2026-05-04 11:47 | 41.72100 | -57.98742 | 32690 ft | 564 kts | 38° |
| 2026-05-04 11:48 | 41.77940 | -57.91713 | 32688 ft | 564 kts | 38° |
| 2026-05-04 11:48 | 41.83763 | -57.84700 | 32692 ft | 564 kts | 38° |
| 2026-05-04 11:49 | 41.89604 | -57.77661 | 32687 ft | 564 kts | 38° |
| 2026-05-04 11:49 | 41.95421 | -57.70628 | 32685 ft | 564 kts | 39° |
| 2026-05-04 11:50 | 42.01225 | -57.63519 | 32687 ft | 564 kts | 38° |
| 2026-05-04 11:50 | 42.07018 | -57.56434 | 32876 ft | 563 kts | 39° |
| 2026-05-04 11:50 | 42.09915 | -57.52898 | 33218 ft | 562 kts | 39° |
| 2026-05-04 11:51 | 42.12814 | -57.49382 | 33587 ft | 560 kts | 38° |
| 2026-05-04 11:51 | 42.15698 | -57.45884 | 33959 ft | 559 kts | 39° |
| 2026-05-04 11:51 | 42.18416 | -57.42559 | 34266 ft | 559 kts | 39° |
| 2026-05-04 11:51 | 42.21303 | -57.39011 | 34489 ft | 563 kts | 41° |
| 2026-05-04 11:52 | 42.24198 | -57.35456 | 34642 ft | 567 kts | 41° |
| 2026-05-04 11:52 | 42.30076 | -57.28238 | 34685 ft | 573 kts | 41° |
| 2026-05-04 11:53 | 42.35987 | -57.20973 | 34676 ft | 575 kts | 41° |
| 2026-05-04 11:53 | 42.41885 | -57.13667 | 34675 ft | 577 kts | 41° |
| 2026-05-04 11:55 | 42.65479 | -56.84130 | 34672 ft | 578 kts | 41° |
| 2026-05-04 11:56 | 42.71369 | -56.76701 | 34672 ft | 578 kts | 41° |
| 2026-05-04 11:56 | 42.77258 | -56.69267 | 34672 ft | 578 kts | 42° |
| 2026-05-04 11:57 | 42.83139 | -56.61808 | 34671 ft | 578 kts | 42° |
| 2026-05-04 11:57 | 42.89019 | -56.54356 | 34672 ft | 578 kts | 42° |
| 2026-05-04 11:58 | 42.94906 | -56.46872 | 34674 ft | 578 kts | 42° |
| 2026-05-04 11:58 | 43.00775 | -56.39402 | 34673 ft | 578 kts | 42° |
| 2026-05-04 11:59 | 43.06660 | -56.31904 | 34670 ft | 578 kts | 42° |
| 2026-05-04 11:59 | 43.12533 | -56.24418 | 34664 ft | 578 kts | 42° |
| 2026-05-04 12:00 | 43.18407 | -56.16895 | 34665 ft | 578 kts | 42° |
| 2026-05-04 12:00 | 43.24245 | -56.09338 | 34663 ft | 578 kts | 42° |
| 2026-05-04 12:01 | 43.30084 | -56.01776 | 34654 ft | 578 kts | 43° |
| 2026-05-04 12:02 | 43.50502 | -55.75172 | 34642 ft | 578 kts | 43° |
| 2026-05-04 12:03 | 43.56320 | -55.67547 | 34647 ft | 578 kts | 43° |
| 2026-05-04 12:03 | 43.62141 | -55.59895 | 34629 ft | 578 kts | 43° |
| 2026-05-04 12:04 | 43.67965 | -55.52228 | 34622 ft | 579 kts | 43° |
| 2026-05-04 12:04 | 43.73870 | -55.44836 | 34633 ft | 568 kts | 42° |
| 2026-05-04 12:05 | 43.79796 | -55.37747 | 34607 ft | 561 kts | 43° |
| 2026-05-04 12:05 | 43.85462 | -55.30382 | 34589 ft | 557 kts | 46° |
| 2026-05-04 12:06 | 43.90967 | -55.22862 | 34590 ft | 554 kts | 46° |
| 2026-05-04 12:06 | 43.96483 | -55.15437 | 34569 ft | 553 kts | 46° |
| 2026-05-04 12:07 | 44.02029 | -55.08015 | 34545 ft | 554 kts | 46° |
| 2026-05-04 12:07 | 44.07565 | -55.00617 | 34569 ft | 553 kts | 46° |
| 2026-05-04 12:08 | 44.13096 | -54.93218 | 34567 ft | 552 kts | 46° |
| 2026-05-04 12:08 | 44.18450 | -54.85539 | 34550 ft | 552 kts | 52° |
| 2026-05-04 12:09 | 44.22973 | -54.76953 | 34567 ft | 551 kts | 60° |
| 2026-05-04 12:09 | 44.27005 | -54.67886 | 34566 ft | 548 kts | 63° |
| 2026-05-04 12:10 | 44.31045 | -54.58824 | 34562 ft | 553 kts | 63° |
| 2026-05-04 12:10 | 44.35307 | -54.49862 | 34566 ft | 555 kts | 61° |
| 2026-05-04 12:11 | 44.39677 | -54.40950 | 34566 ft | 557 kts | 62° |
| 2026-05-04 12:11 | 44.43940 | -54.31923 | 34574 ft | 558 kts | 62° |
| 2026-05-04 12:12 | 44.48225 | -54.22868 | 34574 ft | 558 kts | 62° |
| 2026-05-04 12:12 | 44.52519 | -54.13851 | 34570 ft | 558 kts | 62° |
| 2026-05-04 12:14 | 44.69582 | -53.77584 | 34578 ft | 557 kts | 62° |
| 2026-05-04 12:15 | 44.73827 | -53.68486 | 34578 ft | 557 kts | 62° |
| 2026-05-04 12:15 | 44.78065 | -53.59377 | 34577 ft | 556 kts | 62° |
| 2026-05-04 12:16 | 44.82292 | -53.50265 | 34578 ft | 556 kts | 62° |
| 2026-05-04 12:16 | 44.86522 | -53.41140 | 34573 ft | 556 kts | 62° |
| 2026-05-04 12:17 | 44.90726 | -53.32016 | 34577 ft | 556 kts | 63° |
| 2026-05-04 12:17 | 44.94923 | -53.22871 | 34579 ft | 556 kts | 63° |
| 2026-05-04 12:18 | 44.99120 | -53.13711 | 34588 ft | 555 kts | 63° |
| 2026-05-04 12:18 | 45.03303 | -53.04573 | 34576 ft | 554 kts | 63° |
| 2026-05-04 12:19 | 45.07490 | -52.95424 | 34570 ft | 553 kts | 63° |
| 2026-05-04 12:19 | 45.11629 | -52.86308 | 34573 ft | 553 kts | 63° |
| 2026-05-04 12:20 | 45.15788 | -52.77113 | 34569 ft | 553 kts | 63° |
| 2026-05-04 12:20 | 45.19919 | -52.67934 | 34570 ft | 552 kts | 63° |
| 2026-05-04 12:21 | 45.24036 | -52.58761 | 34569 ft | 552 kts | 63° |
| 2026-05-04 12:21 | 45.28151 | -52.49560 | 34584 ft | 552 kts | 63° |
| 2026-05-04 12:22 | 45.32241 | -52.40386 | 34652 ft | 550 kts | 63° |
| 2026-05-04 12:22 | 45.36328 | -52.31203 | 34648 ft | 550 kts | 63° |
| 2026-05-04 12:23 | 45.40394 | -52.22015 | 34646 ft | 549 kts | 63° |
| 2026-05-04 12:23 | 45.44433 | -52.12743 | 34659 ft | 555 kts | 64° |
| 2026-05-04 12:24 | 45.48487 | -52.03342 | 34666 ft | 559 kts | 64° |
| 2026-05-04 12:24 | 45.52200 | -51.93612 | 34686 ft | 559 kts | 72° |
| 2026-05-04 12:25 | 45.54986 | -51.83297 | 34674 ft | 558 kts | 78° |
| 2026-05-04 12:25 | 45.57392 | -51.72828 | 34681 ft | 554 kts | 79° |
| 2026-05-04 12:26 | 45.59869 | -51.62470 | 34686 ft | 551 kts | 78° |
| 2026-05-04 12:26 | 45.62518 | -51.52206 | 34698 ft | 550 kts | 77° |
| 2026-05-04 12:27 | 45.65185 | -51.41978 | 34714 ft | 550 kts | 77° |
| 2026-05-04 12:27 | 45.67792 | -51.31722 | 34716 ft | 550 kts | 77° |
| 2026-05-04 12:28 | 45.70377 | -51.21436 | 34734 ft | 549 kts | 77° |
| 2026-05-04 12:28 | 45.72960 | -51.11159 | 34706 ft | 549 kts | 77° |
| 2026-05-04 12:29 | 45.75536 | -51.00886 | 34719 ft | 549 kts | 77° |
| 2026-05-04 12:29 | 45.78090 | -50.90607 | 34717 ft | 549 kts | 77° |
| 2026-05-04 12:30 | 45.80650 | -50.80312 | 34737 ft | 548 kts | 78° |
| 2026-05-04 12:30 | 45.83194 | -50.70016 | 34751 ft | 548 kts | 78° |
| 2026-05-04 12:31 | 45.85728 | -50.59736 | 34752 ft | 548 kts | 78° |
| 2026-05-04 12:31 | 45.88260 | -50.49450 | 34752 ft | 548 kts | 78° |
| 2026-05-04 12:32 | 45.92062 | -50.33990 | 34748 ft | 547 kts | 78° |
| 2026-05-04 12:33 | 45.94557 | -50.23676 | 34751 ft | 547 kts | 78° |
| 2026-05-04 12:33 | 45.97049 | -50.13343 | 34753 ft | 547 kts | 78° |
| 2026-05-04 12:34 | 45.99522 | -50.03026 | 34762 ft | 547 kts | 78° |
| 2026-05-04 12:34 | 46.02034 | -49.92707 | 34764 ft | 547 kts | 78° |
| 2026-05-04 12:35 | 46.04648 | -49.82484 | 34773 ft | 544 kts | 77° |
| 2026-05-04 12:35 | 46.07286 | -49.72308 | 34768 ft | 542 kts | 78° |
| 2026-05-04 12:36 | 46.09463 | -49.63895 | 34778 ft | 535 kts | 77° |
| 2026-05-04 12:36 | 46.12031 | -49.53913 | 34789 ft | 530 kts | 78° |
| 2026-05-04 12:37 | 46.14499 | -49.43980 | 34793 ft | 527 kts | 79° |
| 2026-05-04 12:37 | 46.16939 | -49.34019 | 34801 ft | 525 kts | 79° |
| 2026-05-04 12:38 | 46.19361 | -49.24089 | 34802 ft | 524 kts | 79° |
| 2026-05-04 12:38 | 46.21769 | -49.14205 | 34808 ft | 523 kts | 79° |
| 2026-05-04 12:39 | 46.24180 | -49.04297 | 34807 ft | 522 kts | 79° |
| 2026-05-04 12:39 | 46.26575 | -48.94418 | 34809 ft | 522 kts | 79° |
| 2026-05-04 12:40 | 46.28952 | -48.84504 | 34812 ft | 522 kts | 79° |
| 2026-05-04 12:40 | 46.31313 | -48.74611 | 34812 ft | 521 kts | 79° |
| 2026-05-04 12:41 | 46.33671 | -48.64687 | 34816 ft | 521 kts | 79° |
| 2026-05-04 12:41 | 46.36018 | -48.54762 | 34816 ft | 521 kts | 79° |
| 2026-05-04 12:42 | 46.38350 | -48.44855 | 34816 ft | 521 kts | 79° |
| 2026-05-04 12:42 | 46.40679 | -48.34920 | 34816 ft | 521 kts | 79° |
| 2026-05-04 12:43 | 46.42993 | -48.25002 | 34816 ft | 521 kts | 80° |
| 2026-05-04 12:43 | 46.45304 | -48.15065 | 34816 ft | 521 kts | 80° |
| 2026-05-04 12:44 | 46.47608 | -48.05112 | 34816 ft | 521 kts | 80° |
| 2026-05-04 12:44 | 46.49897 | -47.95163 | 34822 ft | 520 kts | 80° |
| 2026-05-04 12:45 | 46.52187 | -47.85203 | 34826 ft | 520 kts | 80° |
| 2026-05-04 12:45 | 46.54460 | -47.75249 | 34842 ft | 520 kts | 80° |
| 2026-05-04 12:46 | 46.56732 | -47.65270 | 34847 ft | 520 kts | 80° |
| 2026-05-04 12:46 | 46.58999 | -47.55298 | 34843 ft | 520 kts | 80° |
| 2026-05-04 12:47 | 46.61245 | -47.45340 | 34843 ft | 517 kts | 76° |
| 2026-05-04 12:47 | 46.63430 | -47.35357 | 34840 ft | 520 kts | 76° |
| 2026-05-04 12:48 | 46.65649 | -47.25320 | 34860 ft | 522 kts | 76° |
| 2026-05-04 12:48 | 46.67881 | -47.15260 | 34869 ft | 523 kts | 76° |
| 2026-05-04 12:49 | 46.70115 | -47.05196 | 34876 ft | 523 kts | 76° |
| 2026-05-04 12:49 | 46.72357 | -46.95109 | 34877 ft | 524 kts | 76° |
| 2026-05-04 12:50 | 46.74569 | -46.85010 | 34879 ft | 524 kts | 77° |
| 2026-05-04 12:50 | 46.76769 | -46.74906 | 34879 ft | 524 kts | 77° |
| 2026-05-04 12:51 | 46.78963 | -46.64762 | 34876 ft | 524 kts | 77° |
| 2026-05-04 12:51 | 46.81145 | -46.54643 | 34878 ft | 524 kts | 77° |
| 2026-05-04 12:52 | 46.83320 | -46.44488 | 34877 ft | 524 kts | 77° |
| 2026-05-04 12:52 | 46.85486 | -46.34344 | 34881 ft | 524 kts | 77° |
| 2026-05-04 12:53 | 46.87642 | -46.24185 | 34882 ft | 524 kts | 77° |
| 2026-05-04 12:53 | 46.89788 | -46.14029 | 34885 ft | 524 kts | 77° |
| 2026-05-04 12:54 | 46.91928 | -46.03854 | 34888 ft | 524 kts | 77° |
| 2026-05-04 12:54 | 46.94059 | -45.93670 | 34884 ft | 525 kts | 77° |
| 2026-05-04 12:55 | 46.96188 | -45.83446 | 34887 ft | 526 kts | 77° |
| 2026-05-04 12:55 | 46.98308 | -45.73203 | 34886 ft | 526 kts | 77° |
| 2026-05-04 12:56 | 47.00420 | -45.62971 | 34890 ft | 526 kts | 77° |
| 2026-05-04 12:56 | 47.02531 | -45.52722 | 34891 ft | 526 kts | 77° |
| 2026-05-04 12:57 | 47.04640 | -45.42466 | 34896 ft | 526 kts | 77° |
| 2026-05-04 12:57 | 47.06748 | -45.32192 | 34898 ft | 525 kts | 76° |
| 2026-05-04 12:58 | 47.08752 | -45.21932 | 34899 ft | 524 kts | 75° |
| 2026-05-04 12:58 | 47.10663 | -45.11591 | 34927 ft | 525 kts | 75° |
| 2026-05-04 12:59 | 47.12671 | -45.01301 | 34916 ft | 526 kts | 74° |
| 2026-05-04 12:59 | 47.14755 | -44.91043 | 34999 ft | 525 kts | 74° |
| 2026-05-04 13:00 | 47.16803 | -44.80753 | 35015 ft | 524 kts | 75° |
| 2026-05-04 13:00 | 47.18819 | -44.70481 | 35036 ft | 524 kts | 75° |
| 2026-05-04 13:01 | 47.20830 | -44.60182 | 35056 ft | 524 kts | 75° |
| 2026-05-04 13:01 | 47.22829 | -44.49919 | 35065 ft | 523 kts | 75° |
| 2026-05-04 13:02 | 47.24829 | -44.39626 | 35072 ft | 523 kts | 75° |
| 2026-05-04 13:02 | 47.26826 | -44.29334 | 35073 ft | 524 kts | 75° |
| 2026-05-04 13:03 | 47.28818 | -44.19018 | 35079 ft | 525 kts | 75° |
| 2026-05-04 13:03 | 47.30787 | -44.08666 | 35077 ft | 527 kts | 75° |
| 2026-05-04 13:04 | 47.32754 | -43.98257 | 35080 ft | 527 kts | 75° |
| 2026-05-04 13:04 | 47.34715 | -43.87843 | 35080 ft | 528 kts | 75° |
| 2026-05-04 13:05 | 47.36666 | -43.77435 | 35081 ft | 528 kts | 76° |
| 2026-05-04 13:05 | 47.38607 | -43.67007 | 35083 ft | 528 kts | 75° |
| 2026-05-04 13:06 | 47.40540 | -43.56559 | 35087 ft | 528 kts | 75° |
| 2026-05-04 13:06 | 47.42461 | -43.46125 | 35092 ft | 528 kts | 76° |
| 2026-05-04 13:07 | 47.44379 | -43.35659 | 35095 ft | 528 kts | 76° |
| 2026-05-04 13:07 | 47.46280 | -43.25217 | 35102 ft | 528 kts | 76° |
| 2026-05-04 13:08 | 47.48172 | -43.14762 | 35106 ft | 527 kts | 76° |
| 2026-05-04 13:08 | 47.50056 | -43.04276 | 35115 ft | 527 kts | 76° |
| 2026-05-04 13:09 | 47.51929 | -42.93807 | 35123 ft | 527 kts | 76° |
| 2026-05-04 13:09 | 47.53791 | -42.83343 | 35132 ft | 527 kts | 76° |
| 2026-05-04 13:10 | 47.55649 | -42.72827 | 35144 ft | 527 kts | 76° |
| 2026-05-04 13:10 | 47.57503 | -42.62349 | 35158 ft | 527 kts | 76° |
| 2026-05-04 13:11 | 47.59347 | -42.51857 | 35169 ft | 527 kts | 76° |
| 2026-05-04 13:11 | 47.61187 | -42.41351 | 35176 ft | 528 kts | 76° |
| 2026-05-04 13:12 | 47.62989 | -42.30783 | 35190 ft | 531 kts | 74° |
| 2026-05-04 13:12 | 47.64605 | -42.20117 | 35194 ft | 530 kts | 73° |
| 2026-05-04 13:13 | 47.66257 | -42.09502 | 35205 ft | 527 kts | 72° |
| 2026-05-04 13:13 | 47.68084 | -41.99017 | 35210 ft | 525 kts | 71° |
| 2026-05-04 13:14 | 47.69909 | -41.88552 | 35220 ft | 524 kts | 72° |
| 2026-05-04 13:14 | 47.71654 | -41.78049 | 35226 ft | 524 kts | 72° |
| 2026-05-04 13:15 | 47.73402 | -41.67565 | 35237 ft | 523 kts | 72° |
| 2026-05-04 13:15 | 47.75136 | -41.57091 | 35245 ft | 523 kts | 72° |
| 2026-05-04 13:16 | 47.76860 | -41.46612 | 35251 ft | 523 kts | 72° |
| 2026-05-04 13:16 | 47.78576 | -41.36114 | 35261 ft | 523 kts | 72° |
| 2026-05-04 13:17 | 47.80290 | -41.25621 | 35263 ft | 523 kts | 72° |
| 2026-05-04 13:17 | 47.81982 | -41.15096 | 35262 ft | 523 kts | 72° |
| 2026-05-04 13:18 | 47.83669 | -41.04592 | 35263 ft | 523 kts | 72° |
| 2026-05-04 13:18 | 47.85354 | -40.94047 | 35261 ft | 523 kts | 72° |
| 2026-05-04 13:19 | 47.87027 | -40.83529 | 35262 ft | 523 kts | 72° |
| 2026-05-04 13:19 | 47.88699 | -40.72980 | 35261 ft | 523 kts | 72° |
| 2026-05-04 13:20 | 47.90354 | -40.62411 | 35262 ft | 523 kts | 73° |
| 2026-05-04 13:20 | 47.91995 | -40.51863 | 35263 ft | 524 kts | 73° |
| 2026-05-04 13:21 | 47.93624 | -40.41308 | 35265 ft | 523 kts | 73° |
| 2026-05-04 13:21 | 47.95260 | -40.30720 | 35267 ft | 524 kts | 73° |
| 2026-05-04 13:22 | 47.96862 | -40.20148 | 35272 ft | 524 kts | 73° |
| 2026-05-04 13:22 | 47.98477 | -40.09559 | 35274 ft | 524 kts | 73° |
| 2026-05-04 13:23 | 48.00094 | -39.98983 | 35279 ft | 523 kts | 71° |
| 2026-05-04 13:23 | 48.02324 | -39.88658 | 35282 ft | 522 kts | 64° |
| 2026-05-04 13:24 | 48.05038 | -39.78623 | 35287 ft | 520 kts | 63° |
| 2026-05-04 13:24 | 48.07731 | -39.68630 | 35290 ft | 518 kts | 64° |
| 2026-05-04 13:25 | 48.11452 | -39.53475 | 35315 ft | 518 kts | 64° |
| 2026-05-04 13:25 | 48.13802 | -39.43368 | 35318 ft | 512 kts | 64° |
| 2026-05-04 13:26 | 48.16198 | -39.33390 | 35323 ft | 508 kts | 63° |
| 2026-05-04 13:26 | 48.18645 | -39.23482 | 35323 ft | 507 kts | 63° |
| 2026-05-04 13:27 | 48.21088 | -39.13612 | 35323 ft | 505 kts | 63° |
| 2026-05-04 13:27 | 48.23474 | -39.03703 | 35329 ft | 505 kts | 64° |
| 2026-05-04 13:28 | 48.25868 | -38.93822 | 35331 ft | 505 kts | 64° |
| 2026-05-04 13:28 | 48.28242 | -38.83922 | 35335 ft | 505 kts | 64° |
| 2026-05-04 13:29 | 48.30610 | -38.74016 | 35336 ft | 505 kts | 64° |
| 2026-05-04 13:29 | 48.32971 | -38.64092 | 35340 ft | 504 kts | 64° |
| 2026-05-04 13:30 | 48.35321 | -38.54185 | 35341 ft | 504 kts | 64° |
| 2026-05-04 13:30 | 48.37268 | -38.45911 | 35340 ft | 504 kts | 64° |
| 2026-05-04 13:31 | 48.39608 | -38.35962 | 35358 ft | 504 kts | 64° |
| 2026-05-04 13:31 | 48.41928 | -38.26031 | 35368 ft | 504 kts | 64° |
| 2026-05-04 13:32 | 48.44253 | -38.16074 | 35375 ft | 504 kts | 64° |
| 2026-05-04 13:32 | 48.46562 | -38.06155 | 35378 ft | 504 kts | 64° |
| 2026-05-04 13:33 | 48.48871 | -37.96161 | 35379 ft | 506 kts | 63° |
| 2026-05-04 13:33 | 48.51039 | -37.86077 | 35382 ft | 507 kts | 64° |
| 2026-05-04 13:34 | 48.53205 | -37.75952 | 35381 ft | 508 kts | 64° |
| 2026-05-04 13:34 | 48.55460 | -37.65866 | 35384 ft | 508 kts | 63° |
| 2026-05-04 13:35 | 48.58903 | -37.50771 | 35383 ft | 507 kts | 63° |
| 2026-05-04 13:36 | 48.61159 | -37.40697 | 35416 ft | 507 kts | 63° |
| 2026-05-04 13:36 | 48.63383 | -37.30710 | 35429 ft | 506 kts | 64° |
| 2026-05-04 13:37 | 48.65659 | -37.20535 | 35430 ft | 506 kts | 63° |
| 2026-05-04 13:37 | 48.67889 | -37.10492 | 35430 ft | 506 kts | 64° |
| 2026-05-04 13:38 | 48.70132 | -37.00355 | 35429 ft | 506 kts | 64° |
| 2026-05-04 13:38 | 48.72361 | -36.90250 | 35429 ft | 506 kts | 64° |
| 2026-05-04 13:39 | 48.74585 | -36.80150 | 35428 ft | 506 kts | 64° |
| 2026-05-04 13:39 | 48.76803 | -36.70042 | 35432 ft | 504 kts | 63° |
| 2026-05-04 13:40 | 48.78898 | -36.60073 | 35429 ft | 491 kts | 64° |
| 2026-05-04 13:40 | 48.80935 | -36.50272 | 35429 ft | 484 kts | 63° |
| 2026-05-04 13:41 | 48.82999 | -36.40609 | 35429 ft | 480 kts | 63° |
| 2026-05-04 13:41 | 48.85071 | -36.30979 | 35426 ft | 482 kts | 63° |
| 2026-05-04 13:42 | 48.88232 | -36.16266 | 35429 ft | 494 kts | 64° |
| 2026-05-04 13:42 | 48.90325 | -36.06308 | 35430 ft | 497 kts | 64° |
| 2026-05-04 13:43 | 48.92428 | -35.96258 | 35430 ft | 499 kts | 64° |
| 2026-05-04 13:43 | 48.94530 | -35.86191 | 35430 ft | 504 kts | 64° |
| 2026-05-04 13:44 | 48.96676 | -35.75963 | 35433 ft | 511 kts | 64° |
| 2026-05-04 13:44 | 48.98817 | -35.65625 | 35433 ft | 514 kts | 65° |
| 2026-05-04 13:45 | 49.00945 | -35.55205 | 35435 ft | 516 kts | 64° |
| 2026-05-04 13:45 | 49.03074 | -35.44765 | 35435 ft | 517 kts | 64° |
| 2026-05-04 13:46 | 49.05206 | -35.34277 | 35436 ft | 518 kts | 65° |
| 2026-05-04 13:46 | 49.07364 | -35.23826 | 35436 ft | 516 kts | 67° |
| 2026-05-04 13:47 | 49.09942 | -35.13643 | 35438 ft | 514 kts | 66° |
| 2026-05-04 13:47 | 49.12370 | -35.03425 | 35439 ft | 513 kts | 70° |
| 2026-05-04 13:48 | 49.14355 | -34.92965 | 35445 ft | 513 kts | 72° |
| 2026-05-04 13:48 | 49.16307 | -34.82513 | 35455 ft | 513 kts | 71° |
| 2026-05-04 13:49 | 49.18388 | -34.72094 | 35456 ft | 512 kts | 71° |
| 2026-05-04 13:49 | 49.20484 | -34.61704 | 35459 ft | 512 kts | 71° |
| 2026-05-04 13:50 | 49.22487 | -34.51253 | 35458 ft | 512 kts | 71° |
| 2026-05-04 13:50 | 49.24528 | -34.40841 | 35459 ft | 512 kts | 71° |
| 2026-05-04 13:51 | 49.26538 | -34.30397 | 35460 ft | 512 kts | 71° |
| 2026-05-04 13:51 | 49.28532 | -34.19935 | 35462 ft | 512 kts | 71° |
| 2026-05-04 13:52 | 49.31524 | -34.04250 | 35471 ft | 512 kts | 71° |
| 2026-05-04 13:53 | 49.33500 | -33.93772 | 35474 ft | 511 kts | 72° |
| 2026-05-04 13:53 | 49.35476 | -33.83317 | 35473 ft | 511 kts | 72° |
| 2026-05-04 13:54 | 49.38411 | -33.67577 | 35475 ft | 511 kts | 72° |
| 2026-05-04 13:55 | 49.41321 | -33.51843 | 35469 ft | 512 kts | 72° |
| 2026-05-04 13:55 | 49.44203 | -33.36142 | 35472 ft | 512 kts | 72° |
| 2026-05-04 13:56 | 49.46130 | -33.25561 | 35473 ft | 512 kts | 72° |
| 2026-05-04 13:57 | 49.48981 | -33.09830 | 35475 ft | 508 kts | 72° |
| 2026-05-04 13:58 | 49.52720 | -32.88945 | 35479 ft | 506 kts | 72° |
| 2026-05-04 13:58 | 49.55494 | -32.73296 | 35483 ft | 505 kts | 73° |
| 2026-05-04 13:59 | 49.57336 | -32.62848 | 35481 ft | 505 kts | 73° |
| 2026-05-04 14:00 | 49.60106 | -32.47152 | 35484 ft | 508 kts | 74° |
| 2026-05-04 14:00 | 49.62862 | -32.31376 | 35486 ft | 509 kts | 75° |
| 2026-05-04 14:01 | 49.64671 | -32.20827 | 35489 ft | 509 kts | 74° |
| 2026-05-04 14:02 | 49.67367 | -32.05009 | 35492 ft | 508 kts | 75° |
| 2026-05-04 14:02 | 49.69149 | -31.94454 | 35493 ft | 508 kts | 75° |
| 2026-05-04 14:03 | 49.70918 | -31.83908 | 35494 ft | 508 kts | 75° |
| 2026-05-04 14:03 | 49.72689 | -31.73340 | 35495 ft | 508 kts | 75° |
| 2026-05-04 14:04 | 49.75311 | -31.57488 | 35495 ft | 508 kts | 75° |
| 2026-05-04 14:04 | 49.77048 | -31.46930 | 35494 ft | 508 kts | 75° |
| 2026-05-04 14:05 | 49.79640 | -31.31028 | 35495 ft | 508 kts | 75° |
| 2026-05-04 14:06 | 49.81363 | -31.20449 | 35494 ft | 508 kts | 75° |
| 2026-05-04 14:06 | 49.83064 | -31.09852 | 35494 ft | 508 kts | 75° |
| 2026-05-04 14:07 | 49.84755 | -30.99231 | 35494 ft | 508 kts | 76° |
| 2026-05-04 14:07 | 49.86446 | -30.88611 | 35494 ft | 508 kts | 76° |
| 2026-05-04 14:08 | 49.88126 | -30.77995 | 35494 ft | 508 kts | 76° |
| 2026-05-04 14:08 | 49.89801 | -30.67375 | 35494 ft | 508 kts | 76° |
| 2026-05-04 14:09 | 49.92307 | -30.51413 | 35494 ft | 508 kts | 76° |
| 2026-05-04 14:10 | 49.94772 | -30.35441 | 35494 ft | 508 kts | 76° |
| 2026-05-04 14:10 | 49.96393 | -30.24804 | 35495 ft | 505 kts | 76° |
| 2026-05-04 14:11 | 49.97930 | -30.14223 | 35494 ft | 500 kts | 76° |
| 2026-05-04 14:11 | 50.00318 | -29.98567 | 35493 ft | 496 kts | 76° |
| 2026-05-04 14:12 | 50.01821 | -29.88086 | 35493 ft | 495 kts | 76° |
| 2026-05-04 14:13 | 50.04075 | -29.72445 | 35493 ft | 494 kts | 76° |
| 2026-05-04 14:13 | 50.05558 | -29.62022 | 35494 ft | 494 kts | 76° |
| 2026-05-04 14:14 | 50.07025 | -29.51579 | 35494 ft | 494 kts | 76° |
| 2026-05-04 14:14 | 50.09226 | -29.35923 | 35494 ft | 494 kts | 76° |
| 2026-05-04 14:15 | 50.12137 | -29.15033 | 35493 ft | 494 kts | 77° |
| 2026-05-04 14:16 | 50.14289 | -28.99328 | 35493 ft | 494 kts | 77° |
| 2026-05-04 14:17 | 50.16417 | -28.83631 | 35492 ft | 494 kts | 77° |
| 2026-05-04 14:18 | 50.18522 | -28.67919 | 35491 ft | 494 kts | 77° |
| 2026-05-04 14:19 | 50.21301 | -28.46930 | 35489 ft | 494 kts | 77° |
| 2026-05-04 14:19 | 50.22671 | -28.36435 | 35488 ft | 494 kts | 77° |
| 2026-05-04 14:20 | 50.24032 | -28.25942 | 35485 ft | 494 kts | 77° |
| 2026-05-04 14:20 | 50.25396 | -28.15431 | 35484 ft | 494 kts | 77° |
| 2026-05-04 14:21 | 50.27407 | -27.99635 | 35480 ft | 494 kts | 77° |
| 2026-05-04 14:21 | 50.28735 | -27.89114 | 35480 ft | 494 kts | 77° |
| 2026-05-04 14:22 | 50.30050 | -27.78570 | 35478 ft | 493 kts | 76° |
| 2026-05-04 14:22 | 50.31349 | -27.68089 | 35477 ft | 490 kts | 76° |
| 2026-05-04 14:23 | 50.33281 | -27.52446 | 35474 ft | 488 kts | 76° |
| 2026-05-04 14:24 | 50.34551 | -27.42018 | 35474 ft | 487 kts | 76° |
| 2026-05-04 14:24 | 50.35818 | -27.31618 | 35470 ft | 487 kts | 77° |
| 2026-05-04 14:25 | 50.37078 | -27.21198 | 35468 ft | 487 kts | 76° |
| 2026-05-04 14:25 | 50.38711 | -27.07301 | 35466 ft | 487 kts | 77° |
| 2026-05-04 14:26 | 50.39926 | -26.96890 | 35467 ft | 487 kts | 77° |
| 2026-05-04 14:26 | 50.41130 | -26.86463 | 35466 ft | 487 kts | 77° |
| 2026-05-04 14:27 | 50.42330 | -26.76012 | 35466 ft | 487 kts | 77° |
| 2026-05-04 14:27 | 50.43523 | -26.65570 | 35465 ft | 487 kts | 77° |
| 2026-05-04 14:28 | 50.44710 | -26.55132 | 35465 ft | 487 kts | 77° |
| 2026-05-04 14:28 | 50.45893 | -26.44690 | 35464 ft | 487 kts | 77° |
| 2026-05-04 14:29 | 50.48250 | -26.23756 | 35462 ft | 487 kts | 77° |
| 2026-05-04 14:30 | 50.49419 | -26.13305 | 35463 ft | 487 kts | 77° |
| 2026-05-04 14:31 | 50.51167 | -25.97597 | 35461 ft | 487 kts | 77° |
| 2026-05-04 14:32 | 50.53426 | -25.76626 | 35459 ft | 487 kts | 77° |
| 2026-05-04 14:32 | 50.54532 | -25.66122 | 35457 ft | 487 kts | 78° |
| 2026-05-04 14:33 | 50.55649 | -25.55630 | 35455 ft | 488 kts | 78° |
| 2026-05-04 14:33 | 50.56738 | -25.45104 | 35454 ft | 488 kts | 78° |
| 2026-05-04 14:34 | 50.57819 | -25.34589 | 35452 ft | 488 kts | 78° |
| 2026-05-04 14:34 | 50.58909 | -25.24079 | 35451 ft | 487 kts | 79° |
| 2026-05-04 14:35 | 50.59955 | -25.13551 | 35449 ft | 487 kts | 79° |
| 2026-05-04 14:35 | 50.61014 | -25.03042 | 35447 ft | 486 kts | 79° |
| 2026-05-04 14:36 | 50.62072 | -24.92549 | 35446 ft | 486 kts | 79° |
| 2026-05-04 14:36 | 50.63102 | -24.82018 | 35444 ft | 486 kts | 79° |
| 2026-05-04 14:37 | 50.64131 | -24.71512 | 35443 ft | 486 kts | 79° |
| 2026-05-04 14:37 | 50.65152 | -24.60986 | 35442 ft | 486 kts | 79° |
| 2026-05-04 14:38 | 50.66156 | -24.50467 | 35440 ft | 486 kts | 79° |
| 2026-05-04 14:38 | 50.67147 | -24.39928 | 35440 ft | 486 kts | 79° |
| 2026-05-04 14:39 | 50.68136 | -24.29400 | 35438 ft | 486 kts | 79° |
| 2026-05-04 14:39 | 50.69127 | -24.18846 | 35437 ft | 486 kts | 79° |
| 2026-05-04 14:40 | 50.70577 | -24.03027 | 35436 ft | 487 kts | 79° |
| 2026-05-04 14:40 | 50.71526 | -23.92482 | 35435 ft | 487 kts | 79° |
| 2026-05-04 14:41 | 50.72466 | -23.81912 | 35433 ft | 487 kts | 80° |
| 2026-05-04 14:42 | 50.74344 | -23.60773 | 35431 ft | 487 kts | 80° |
| 2026-05-04 14:42 | 50.75257 | -23.50200 | 35431 ft | 487 kts | 80° |
| 2026-05-04 14:43 | 50.76158 | -23.39613 | 35430 ft | 487 kts | 80° |
| 2026-05-04 14:43 | 50.77056 | -23.29035 | 35429 ft | 487 kts | 81° |
| 2026-05-04 14:44 | 50.77955 | -23.18448 | 35429 ft | 487 kts | 81° |
| 2026-05-04 14:44 | 50.78839 | -23.07845 | 35428 ft | 487 kts | 80° |
| 2026-05-04 14:45 | 50.79703 | -22.97233 | 35429 ft | 487 kts | 80° |
| 2026-05-04 14:45 | 50.80557 | -22.86628 | 35428 ft | 487 kts | 81° |
| 2026-05-04 14:46 | 50.81414 | -22.76029 | 35428 ft | 485 kts | 82° |
| 2026-05-04 14:46 | 50.82227 | -22.65494 | 35427 ft | 483 kts | 82° |
| 2026-05-04 14:47 | 50.83057 | -22.54965 | 35427 ft | 482 kts | 82° |
| 2026-05-04 14:47 | 50.83884 | -22.44480 | 35409 ft | 481 kts | 82° |
| 2026-05-04 14:48 | 50.84682 | -22.33977 | 35392 ft | 481 kts | 82° |
| 2026-05-04 14:48 | 50.85485 | -22.23459 | 35386 ft | 482 kts | 82° |
| 2026-05-04 14:49 | 50.86269 | -22.12937 | 35380 ft | 482 kts | 82° |
| 2026-05-04 14:49 | 50.87040 | -22.02428 | 35379 ft | 482 kts | 82° |
| 2026-05-04 14:50 | 50.87803 | -21.91886 | 35378 ft | 482 kts | 82° |
| 2026-05-04 14:50 | 50.88562 | -21.81365 | 35378 ft | 482 kts | 83° |
| 2026-05-04 14:51 | 50.89315 | -21.70846 | 35376 ft | 482 kts | 82° |
| 2026-05-04 14:51 | 50.90045 | -21.60290 | 35375 ft | 482 kts | 82° |
| 2026-05-04 14:52 | 50.90771 | -21.49762 | 35374 ft | 482 kts | 83° |
| 2026-05-04 14:52 | 50.91404 | -21.40694 | 35374 ft | 482 kts | 83° |
| 2026-05-04 14:53 | 50.91964 | -21.32197 | 35373 ft | 482 kts | 83° |
| 2026-05-04 14:53 | 50.92669 | -21.21646 | 35372 ft | 482 kts | 83° |
| 2026-05-04 14:54 | 50.93374 | -21.11085 | 35372 ft | 482 kts | 83° |
| 2026-05-04 14:54 | 50.94056 | -21.00531 | 35370 ft | 482 kts | 83° |
| 2026-05-04 14:55 | 50.94723 | -20.89964 | 35370 ft | 482 kts | 83° |
| 2026-05-04 14:55 | 50.95387 | -20.79399 | 35368 ft | 482 kts | 83° |
| 2026-05-04 14:56 | 50.96050 | -20.68834 | 35368 ft | 482 kts | 84° |
| 2026-05-04 14:56 | 50.96703 | -20.58259 | 35367 ft | 482 kts | 83° |
| 2026-05-04 14:57 | 50.97331 | -20.47690 | 35366 ft | 482 kts | 83° |
| 2026-05-04 14:57 | 50.97948 | -20.37090 | 35366 ft | 482 kts | 84° |
| 2026-05-04 14:58 | 50.98556 | -20.26516 | 35365 ft | 482 kts | 84° |
| 2026-05-04 14:58 | 50.99167 | -20.15922 | 35364 ft | 482 kts | 84° |
| 2026-05-04 14:59 | 50.99776 | -20.05336 | 35362 ft | 482 kts | 83° |
| 2026-05-04 15:00 | 51.00353 | -19.89417 | 35362 ft | 481 kts | 88° |
| 2026-05-04 15:00 | 51.00469 | -19.78843 | 35360 ft | 479 kts | 88° |
| 2026-05-04 15:01 | 51.00787 | -19.63031 | 35358 ft | 478 kts | 87° |
| 2026-05-04 15:01 | 51.01007 | -19.52485 | 35357 ft | 478 kts | 88° |
| 2026-05-04 15:02 | 51.01167 | -19.41963 | 35356 ft | 478 kts | 87° |
| 2026-05-04 15:02 | 51.01339 | -19.31420 | 35355 ft | 478 kts | 88° |
| 2026-05-04 15:03 | 51.01510 | -19.20892 | 35354 ft | 478 kts | 88° |
| 2026-05-04 15:03 | 51.01650 | -19.10347 | 35338 ft | 478 kts | 88° |
| 2026-05-04 15:04 | 51.01784 | -18.99829 | 35335 ft | 478 kts | 88° |
| 2026-05-04 15:04 | 51.01920 | -18.89275 | 35329 ft | 478 kts | 88° |
| 2026-05-04 15:05 | 51.02049 | -18.78745 | 35328 ft | 478 kts | 88° |
| 2026-05-04 15:05 | 51.02158 | -18.68206 | 35326 ft | 478 kts | 88° |
| 2026-05-04 15:06 | 51.02251 | -18.57666 | 35325 ft | 478 kts | 88° |
| 2026-05-04 15:07 | 51.02394 | -18.41845 | 35323 ft | 478 kts | 88° |
| 2026-05-04 15:07 | 51.02463 | -18.31305 | 35322 ft | 478 kts | 88° |
| 2026-05-04 15:08 | 51.02532 | -18.20766 | 35321 ft | 478 kts | 89° |
| 2026-05-04 15:08 | 51.02583 | -18.10214 | 35320 ft | 478 kts | 89° |
| 2026-05-04 15:09 | 51.02641 | -17.99681 | 35318 ft | 478 kts | 89° |
| 2026-05-04 15:09 | 51.02681 | -17.89122 | 35317 ft | 478 kts | 89° |
| 2026-05-04 15:10 | 51.02726 | -17.73314 | 35315 ft | 478 kts | 89° |
| 2026-05-04 15:11 | 51.02746 | -17.57503 | 35314 ft | 478 kts | 89° |
| 2026-05-04 15:11 | 51.02753 | -17.46938 | 35312 ft | 478 kts | 89° |
| 2026-05-04 15:12 | 51.02742 | -17.36405 | 35311 ft | 478 kts | 89° |
| 2026-05-04 15:12 | 51.02718 | -17.25852 | 35310 ft | 478 kts | 89° |
| 2026-05-04 15:13 | 51.02692 | -17.15304 | 35309 ft | 478 kts | 89° |
| 2026-05-04 15:13 | 51.02658 | -17.04778 | 35309 ft | 475 kts | 87° |
| 2026-05-04 15:14 | 51.02633 | -16.94387 | 35306 ft | 467 kts | 88° |
| 2026-05-04 15:14 | 51.02570 | -16.84127 | 35304 ft | 462 kts | 88° |
| 2026-05-04 15:15 | 51.02508 | -16.73964 | 35303 ft | 460 kts | 88° |
| 2026-05-04 15:15 | 51.02444 | -16.63840 | 35303 ft | 459 kts | 88° |
| 2026-05-04 15:16 | 51.02321 | -16.48653 | 35301 ft | 458 kts | 88° |
| 2026-05-04 15:17 | 51.02179 | -16.33510 | 35299 ft | 458 kts | 89° |
| 2026-05-04 15:17 | 51.02008 | -16.18386 | 35298 ft | 457 kts | 89° |
| 2026-05-04 15:18 | 51.01894 | -16.08283 | 35297 ft | 457 kts | 89° |
| 2026-05-04 15:19 | 51.01696 | -15.93151 | 35296 ft | 457 kts | 89° |
| 2026-05-04 15:19 | 51.01485 | -15.78019 | 35293 ft | 457 kts | 89° |
| 2026-05-04 15:20 | 51.01369 | -15.69615 | 35290 ft | 458 kts | 89° |
| 2026-05-04 15:20 | 51.01212 | -15.59511 | 35276 ft | 458 kts | 89° |
| 2026-05-04 15:21 | 51.01032 | -15.49411 | 35272 ft | 458 kts | 89° |
| 2026-05-04 15:22 | 51.00765 | -15.34270 | 35266 ft | 458 kts | 89° |
| 2026-05-04 15:22 | 51.00471 | -15.19137 | 35266 ft | 457 kts | 89° |
| 2026-05-04 15:23 | 51.00289 | -15.09096 | 35265 ft | 454 kts | 89° |
| 2026-05-04 15:23 | 51.00074 | -14.99102 | 35264 ft | 453 kts | 88° |
| 2026-05-04 15:24 | 51.00200 | -14.79205 | 35239 ft | 451 kts | 86° |
| 2026-05-04 15:25 | 51.00177 | -14.69238 | 35233 ft | 451 kts | 87° |
| 2026-05-04 15:26 | 51.00201 | -14.54336 | 35232 ft | 450 kts | 86° |
| 2026-05-04 15:26 | 51.00185 | -14.39420 | 35230 ft | 450 kts | 86° |
| 2026-05-04 15:27 | 51.00163 | -14.24528 | 35229 ft | 450 kts | 87° |
| 2026-05-04 15:28 | 51.00126 | -14.09633 | 35229 ft | 450 kts | 87° |
| 2026-05-04 15:29 | 51.00136 | -13.94735 | 35228 ft | 450 kts | 85° |
| 2026-05-04 15:30 | 51.01030 | -13.60047 | 35226 ft | 449 kts | 85° |
| 2026-05-04 15:31 | 51.01368 | -13.45184 | 35225 ft | 450 kts | 85° |
| 2026-05-04 15:32 | 51.01859 | -13.20396 | 35223 ft | 450 kts | 85° |
| 2026-05-04 15:34 | 51.02303 | -12.95590 | 35206 ft | 450 kts | 85° |
| 2026-05-04 15:34 | 51.02543 | -12.80695 | 35199 ft | 450 kts | 85° |
| 2026-05-04 15:35 | 51.02764 | -12.65799 | 35197 ft | 450 kts | 85° |
| 2026-05-04 15:36 | 51.02954 | -12.50901 | 35195 ft | 451 kts | 85° |
| 2026-05-04 15:36 | 51.03087 | -12.40944 | 35195 ft | 452 kts | 86° |
| 2026-05-04 15:37 | 51.03201 | -12.30966 | 35192 ft | 452 kts | 86° |
| 2026-05-04 15:37 | 51.03306 | -12.20991 | 35193 ft | 453 kts | 86° |
| 2026-05-04 15:38 | 51.03406 | -12.10990 | 35190 ft | 453 kts | 86° |
| 2026-05-04 15:38 | 51.03492 | -12.01011 | 35190 ft | 453 kts | 86° |
| 2026-05-04 15:39 | 51.03577 | -11.91009 | 35189 ft | 453 kts | 86° |
| 2026-05-04 15:40 | 51.03681 | -11.76017 | 35188 ft | 453 kts | 86° |
| 2026-05-04 15:40 | 51.03737 | -11.66002 | 35185 ft | 453 kts | 86° |
| 2026-05-04 15:41 | 51.03788 | -11.56015 | 35185 ft | 453 kts | 86° |
| 2026-05-04 15:41 | 51.03837 | -11.46021 | 35181 ft | 453 kts | 86° |
| 2026-05-04 15:42 | 51.03878 | -11.36002 | 35166 ft | 454 kts | 86° |
| 2026-05-04 15:42 | 51.03901 | -11.25954 | 35165 ft | 455 kts | 86° |
| 2026-05-04 15:43 | 51.03908 | -11.15919 | 35157 ft | 454 kts | 86° |
| 2026-05-04 15:43 | 51.03921 | -11.05910 | 35157 ft | 454 kts | 87° |
| 2026-05-04 15:44 | 51.03931 | -10.95872 | 35153 ft | 454 kts | 86° |
| 2026-05-04 15:44 | 51.03924 | -10.85866 | 35152 ft | 454 kts | 86° |
| 2026-05-04 15:45 | 51.03898 | -10.75839 | 35150 ft | 454 kts | 86° |
| 2026-05-04 15:45 | 51.03871 | -10.65824 | 35147 ft | 454 kts | 87° |
| 2026-05-04 15:46 | 51.03848 | -10.55789 | 35147 ft | 454 kts | 87° |
| 2026-05-04 15:46 | 51.03809 | -10.45774 | 35143 ft | 454 kts | 87° |
| 2026-05-04 15:47 | 51.03748 | -10.35738 | 35142 ft | 454 kts | 86° |
| 2026-05-04 15:47 | 51.03688 | -10.25727 | 35139 ft | 454 kts | 87° |
| 2026-05-04 15:48 | 51.03634 | -10.15680 | 35137 ft | 454 kts | 88° |
| 2026-05-04 15:48 | 51.03504 | -10.00633 | 35134 ft | 455 kts | 88° |
| 2026-05-04 15:49 | 51.03423 | -9.90582 | 35132 ft | 455 kts | 88° |
| 2026-05-04 15:49 | 51.03324 | -9.80551 | 35132 ft | 455 kts | 88° |
| 2026-05-04 15:50 | 51.03232 | -9.70545 | 35129 ft | 451 kts | 88° |
| 2026-05-04 15:50 | 51.03130 | -9.60630 | 35128 ft | 449 kts | 89° |
| 2026-05-04 15:51 | 51.03001 | -9.50745 | 35117 ft | 448 kts | 88° |
| 2026-05-04 15:51 | 51.02865 | -9.40859 | 35115 ft | 448 kts | 89° |
| 2026-05-04 15:52 | 51.02734 | -9.30998 | 35112 ft | 447 kts | 89° |
| 2026-05-04 15:52 | 51.02581 | -9.21127 | 35111 ft | 447 kts | 89° |
| 2026-05-04 15:53 | 51.02420 | -9.11263 | 35111 ft | 447 kts | 89° |
| 2026-05-04 15:53 | 51.02263 | -9.01390 | 35111 ft | 447 kts | 89° |
| 2026-05-04 15:54 | 51.02088 | -8.91518 | 35112 ft | 447 kts | 89° |
| 2026-05-04 15:54 | 51.01905 | -8.81659 | 35111 ft | 447 kts | 89° |
| 2026-05-04 15:55 | 51.01711 | -8.71802 | 35111 ft | 447 kts | 89° |
| 2026-05-04 15:55 | 51.01522 | -8.61931 | 35111 ft | 447 kts | 89° |
| 2026-05-04 15:56 | 51.01306 | -8.52061 | 35111 ft | 447 kts | 89° |
| 2026-05-04 15:56 | 51.01103 | -8.42198 | 35111 ft | 447 kts | 89° |
| 2026-05-04 15:57 | 51.00872 | -8.32332 | 35111 ft | 447 kts | 89° |
| 2026-05-04 15:57 | 51.00644 | -8.22472 | 35111 ft | 448 kts | 89° |
| 2026-05-04 15:58 | 51.00401 | -8.12599 | 35098 ft | 448 kts | 90° |
| 2026-05-04 15:58 | 51.00159 | -8.02738 | 35093 ft | 448 kts | 89° |
| 2026-05-04 15:59 | 50.99907 | -7.92877 | 35093 ft | 448 kts | 90° |
| 2026-05-04 15:59 | 50.99644 | -7.82996 | 35093 ft | 448 kts | 90° |
| 2026-05-04 16:00 | 50.99375 | -7.73121 | 35092 ft | 448 kts | 90° |
| 2026-05-04 16:00 | 50.99101 | -7.63256 | 35093 ft | 448 kts | 90° |
| 2026-05-04 16:01 | 50.98823 | -7.53398 | 35093 ft | 448 kts | 90° |
| 2026-05-04 16:01 | 50.98539 | -7.43522 | 35087 ft | 448 kts | 90° |
| 2026-05-04 16:02 | 50.98251 | -7.33659 | 35085 ft | 448 kts | 90° |
| 2026-05-04 16:03 | 50.97776 | -7.18826 | 35078 ft | 449 kts | 90° |
| 2026-05-04 16:03 | 50.97440 | -7.08942 | 35072 ft | 453 kts | 92° |
| 2026-05-04 16:04 | 50.97092 | -6.98872 | 35069 ft | 460 kts | 93° |
| 2026-05-04 16:04 | 50.96578 | -6.83579 | 35066 ft | 466 kts | 93° |
| 2026-05-04 16:05 | 50.96232 | -6.73320 | 35060 ft | 468 kts | 93° |
| 2026-05-04 16:06 | 50.95650 | -6.57850 | 35055 ft | 469 kts | 94° |
| 2026-05-04 16:07 | 50.94841 | -6.37170 | 35039 ft | 472 kts | 94° |
| 2026-05-04 16:08 | 50.94006 | -6.16383 | 35026 ft | 474 kts | 94° |
| 2026-05-04 16:09 | 50.92884 | -5.90319 | 35013 ft | 475 kts | 94° |
| 2026-05-04 16:10 | 50.91955 | -5.69404 | 35012 ft | 476 kts | 95° |
| 2026-05-04 16:11 | 50.90987 | -5.48497 | 35010 ft | 476 kts | 95° |
| 2026-05-04 16:12 | 50.89496 | -5.17154 | 35008 ft | 476 kts | 95° |
| 2026-05-04 16:13 | 50.88444 | -4.96253 | 35007 ft | 476 kts | 95° |
| 2026-05-04 16:14 | 50.87436 | -4.77095 | 35004 ft | 477 kts | 95° |
| 2026-05-04 16:16 | 50.86018 | -4.50990 | 34999 ft | 477 kts | 96° |
| 2026-05-04 16:17 | 50.84539 | -4.24852 | 34994 ft | 477 kts | 96° |
| 2026-05-04 16:18 | 50.83314 | -4.03997 | 34993 ft | 477 kts | 96° |
| 2026-05-04 16:19 | 50.80492 | -3.78196 | 34676 ft | 478 kts | 110° |
| 2026-05-04 16:20 | 50.76918 | -3.63621 | 33661 ft | 472 kts | 111° |
| 2026-05-04 16:20 | 50.74802 | -3.53834 | 32959 ft | 467 kts | 109° |
| 2026-05-04 16:21 | 50.71857 | -3.39337 | 31909 ft | 459 kts | 110° |
| 2026-05-04 16:22 | 50.69847 | -3.29868 | 31208 ft | 453 kts | 110° |
| 2026-05-04 16:22 | 50.66835 | -3.15878 | 30092 ft | 445 kts | 111° |
| 2026-05-04 16:23 | 50.63985 | -3.02094 | 28965 ft | 439 kts | 107° |
| 2026-05-04 16:24 | 50.64725 | -2.83275 | 27473 ft | 436 kts | 78° |
| 2026-05-04 16:25 | 50.66204 | -2.74008 | 27029 ft | 437 kts | 82° |
| 2026-05-04 16:26 | 50.68271 | -2.55253 | 26993 ft | 434 kts | 84° |
| 2026-05-04 16:26 | 50.68655 | -2.41091 | 26995 ft | 431 kts | 98° |
| 2026-05-04 16:27 | 50.68058 | -2.31744 | 26962 ft | 429 kts | 101° |
| 2026-05-04 16:28 | 50.67263 | -2.17785 | 25900 ft | 423 kts | 98° |
| 2026-05-04 16:28 | 50.66672 | -2.03979 | 24774 ft | 420 kts | 97° |
| 2026-05-04 16:29 | 50.66645 | -1.85692 | 23253 ft | 416 kts | 91° |
| 2026-05-04 16:30 | 50.66771 | -1.72127 | 21916 ft | 410 kts | 92° |
| 2026-05-04 16:31 | 50.66782 | -1.63219 | 21135 ft | 403 kts | 91° |
| 2026-05-04 16:31 | 50.66820 | -1.50013 | 20991 ft | 401 kts | 92° |
| 2026-05-04 16:32 | 50.66556 | -1.36865 | 20970 ft | 400 kts | 91° |
| 2026-05-04 16:33 | 50.67398 | -1.28241 | 20025 ft | 399 kts | 73° |
| 2026-05-04 16:33 | 50.69743 | -1.20379 | 19041 ft | 395 kts | 63° |
| 2026-05-04 16:34 | 50.72030 | -1.12616 | 18022 ft | 387 kts | 69° |
| 2026-05-04 16:34 | 50.72991 | -1.08704 | 17520 ft | 378 kts | 71° |
| 2026-05-04 16:35 | 50.75709 | -0.97449 | 16016 ft | 355 kts | 69° |
| 2026-05-04 16:35 | 50.78392 | -0.86862 | 14513 ft | 339 kts | 70° |
| 2026-05-04 16:36 | 50.79263 | -0.83423 | 13949 ft | 337 kts | 69° |
| 2026-05-04 16:36 | 50.81120 | -0.76713 | 12801 ft | 321 kts | 69° |
| 2026-05-04 16:37 | 50.81975 | -0.70430 | 11421 ft | 278 kts | 85° |
| 2026-05-04 16:37 | 50.82174 | -0.67387 | 10634 ft | 278 kts | 85° |
| 2026-05-04 16:37 | 50.82892 | -0.61516 | 9090 ft | 277 kts | 78° |
| 2026-05-04 16:38 | 50.83543 | -0.55548 | 7539 ft | 276 kts | 81° |
| 2026-05-04 16:39 | 50.84548 | -0.46775 | 6992 ft | 258 kts | 79° |
| 2026-05-04 16:39 | 50.85161 | -0.41317 | 6994 ft | 250 kts | 80° |
| 2026-05-04 16:40 | 50.86035 | -0.36051 | 6732 ft | 251 kts | 63° |
| 2026-05-04 16:40 | 50.88646 | -0.32615 | 6037 ft | 248 kts | 20° |
| 2026-05-04 16:41 | 50.92003 | -0.32650 | 5373 ft | 234 kts | 348° |
| 2026-05-04 16:41 | 50.96264 | -0.34526 | 4994 ft | 201 kts | 343° |
| 2026-05-04 16:42 | 51.00416 | -0.36457 | 4203 ft | 219 kts | 343° |
| 2026-05-04 16:43 | 51.03109 | -0.37733 | 3385 ft | 223 kts | 343° |
| 2026-05-04 16:43 | 51.06075 | -0.39157 | 3018 ft | 223 kts | 343° |
| 2026-05-04 16:43 | 51.07560 | -0.39878 | 2996 ft | 224 kts | 343° |
| 2026-05-04 16:44 | 51.13266 | -0.38590 | 2998 ft | 224 kts | 48° |
| 2026-05-04 16:45 | 51.14099 | -0.33905 | 2735 ft | 227 kts | 91° |
| 2026-05-04 16:46 | 51.13637 | -0.27555 | 1059 ft | 175 kts | 81° |
| 2026-05-04 16:46 | 51.14136 | -0.23973 | 642 ft | 162 kts | 77° |
| 2026-05-04 16:47 | 51.14596 | -0.20536 | 233 ft | 154 kts | 76° |
| 2026-05-04 16:47 | 51.14907 | -0.18304 | 207 ft | 54 kts | 76° |
| 2026-05-04 16:48 | 51.15094 | -0.17255 | 207 ft | 14 kts | 49° |
| 2026-05-04 16:48 | 51.15171 | -0.17187 | 207 ft | 15 kts | 6° |
| 2026-05-04 16:49 | 51.15236 | -0.17198 | 207 ft | 0 kts | 338° |
| 2026-05-04 16:50 | 51.15396 | -0.17268 | 207 ft | 18 kts | 347° |
| 2026-05-04 16:51 | 51.15553 | -0.17318 | 207 ft | 5 kts | 5° |
| 2026-05-04 16:51 | 51.15583 | -0.17281 | 207 ft | 10 kts | 53° |
| 2026-05-04 16:51 | 51.15643 | -0.16954 | 207 ft | 15 kts | 77° |
| 2026-05-04 16:52 | 51.15673 | -0.16715 | 207 ft | 5 kts | 77° |
| 2026-05-04 16:52 | 51.15679 | -0.16632 | 207 ft | 9 kts | 105° |
| 2026-05-04 16:53 | 51.15618 | -0.16583 | 207 ft | 0 kts | 167° |